createdAt,value
2023-04-09T00:01:15.137Z,98609.38
2023-04-09T00:04:25.280Z,98606.88
2023-04-09T00:07:31.184Z,98602.03
2023-04-09T00:10:38.033Z,98602.84
2023-04-09T00:13:43.915Z,98604.28
2023-04-09T00:16:50.811Z,98599.25
2023-04-09T00:19:59.292Z,98601.75
2023-04-09T00:23:06.468Z,98603.13
2023-04-09T00:26:13.072Z,98596.72
2023-04-09T00:29:20.025Z,98603.81
2023-04-09T00:32:25.985Z,98598.13
2023-04-09T00:35:35.410Z,98609.28
2023-04-09T00:38:41.375Z,98610.09
2023-04-09T00:41:48.491Z,98606.91
2023-04-09T00:44:55.954Z,98611.63
2023-04-09T00:48:03.286Z,98617.31
2023-04-09T00:51:12.241Z,98619.78
2023-04-09T00:54:19.611Z,98617.59
2023-04-09T00:57:29.088Z,98618.00
2023-04-09T01:00:36.096Z,98614.22
2023-04-09T01:03:42.759Z,98619.06
2023-04-09T01:06:58.924Z,98625.72
2023-04-09T01:10:24.784Z,98625.28
2023-04-09T01:13:42.922Z,98623.75
2023-04-09T01:16:58.753Z,98624.47
2023-04-09T01:20:14.636Z,98609.59
2023-04-09T01:23:48.060Z,98625.88
2023-04-09T01:27:11.630Z,98631.47
2023-04-09T01:30:32.673Z,98626.31
2023-04-09T01:33:42.834Z,98630.34
2023-04-09T01:36:59.331Z,98621.56
2023-04-09T01:40:08.053Z,98622.84
2023-04-09T01:43:18.242Z,98620.19
2023-04-09T01:46:29.185Z,98621.84
2023-04-09T01:49:37.250Z,98622.28
2023-04-09T01:52:46.139Z,98622.00
2023-04-09T01:55:56.448Z,98621.75
2023-04-09T01:59:02.413Z,98619.13
2023-04-09T02:02:22.275Z,98627.84
2023-04-09T02:05:36.595Z,98620.31
2023-04-09T02:08:50.785Z,98623.25
2023-04-09T02:12:01.363Z,98630.47
2023-04-09T02:15:12.667Z,98602.75
2023-04-09T02:18:33.089Z,98628.09
2023-04-09T02:21:40.132Z,98624.72
2023-04-09T02:24:46.076Z,98624.84
2023-04-09T02:27:52.959Z,98622.81
2023-04-09T02:31:10.080Z,98609.59
2023-04-09T02:34:22.109Z,98609.59
2023-04-09T02:37:28.102Z,98615.88
2023-04-09T02:40:35.005Z,98615.03
2023-04-09T02:43:41.202Z,98610.84
2023-04-09T02:46:50.212Z,98620.84
2023-04-09T02:49:58.772Z,98624.47
2023-04-09T02:53:09.278Z,98623.72
2023-04-09T02:56:15.275Z,98625.53
2023-04-09T02:59:22.145Z,98627.31
2023-04-09T03:02:28.633Z,98624.84
2023-04-09T03:05:42.013Z,98627.72
2023-04-09T03:08:50.695Z,98623.03
2023-04-09T03:11:57.746Z,98628.31
2023-04-09T03:15:04.960Z,98629.44
2023-04-09T03:18:11.697Z,98631.22
2023-04-09T03:21:20.232Z,98635.81
2023-04-09T03:24:29.803Z,98637.22
2023-04-09T03:27:40.005Z,98628.31
2023-04-09T03:30:47.268Z,98632.81
2023-04-09T03:33:54.191Z,98626.44
2023-04-09T03:37:03.661Z,98631.13
2023-04-09T03:40:12.953Z,98625.28
2023-04-09T03:43:22.025Z,98623.91
2023-04-09T03:46:31.196Z,98625.25
2023-04-09T03:49:39.998Z,98616.91
2023-04-09T03:52:57.593Z,98625.97
2023-04-09T03:56:04.717Z,98623.59
2023-04-09T03:59:11.594Z,98624.41
2023-04-09T04:02:23.209Z,98621.94
2023-04-09T04:05:37.870Z,98624.03
2023-04-09T04:08:51.250Z,98629.84
2023-04-09T04:12:01.218Z,98639.16
2023-04-09T04:15:33.645Z,98636.25
2023-04-09T04:18:41.948Z,98625.16
2023-04-09T04:21:48.970Z,98616.66
2023-04-09T04:24:58.196Z,98625.69
2023-04-09T04:28:05.743Z,98635.28
2023-04-09T04:31:18.026Z,98644.31
2023-04-09T04:34:26.760Z,98641.97
2023-04-09T04:37:41.034Z,98640.34
2023-04-09T04:40:50.442Z,98640.63
2023-04-09T04:43:57.630Z,98656.50
2023-04-09T04:47:05.674Z,98647.06
2023-04-09T04:50:13.606Z,98659.03
2023-04-09T04:53:32.776Z,98654.31
2023-04-09T04:56:48.282Z,98647.50
2023-04-09T05:00:12.394Z,98642.66
2023-04-09T05:03:20.108Z,98642.94
2023-04-09T05:06:50.147Z,98643.22
2023-04-09T05:09:59.970Z,98644.31
2023-04-09T05:13:20.839Z,98649.63
2023-04-09T05:16:27.447Z,98653.50
2023-04-09T05:19:42.355Z,98658.50
2023-04-09T05:22:50.048Z,98663.25
2023-04-09T05:25:57.055Z,98659.44
2023-04-09T05:29:14.983Z,98661.00
2023-04-09T05:32:22.627Z,98661.22
2023-04-09T05:35:29.244Z,98666.16
2023-04-09T05:38:36.889Z,98663.41
2023-04-09T05:41:44.971Z,98670.31
2023-04-09T05:45:09.575Z,98672.25
2023-04-09T05:48:18.861Z,98669.50
2023-04-09T05:51:29.518Z,98673.03
2023-04-09T05:54:36.841Z,98667.91
2023-04-09T05:57:47.825Z,98676.91
2023-04-09T06:00:56.511Z,98679.59
2023-04-09T06:04:03.728Z,98680.19
2023-04-09T06:07:10.146Z,98679.19
2023-04-09T06:10:17.044Z,98688.00
2023-04-09T06:13:23.382Z,98685.66
2023-04-09T06:16:35.259Z,98688.47
2023-04-09T06:19:41.472Z,98677.03
2023-04-09T06:22:48.562Z,98689.69
2023-04-09T06:25:54.582Z,98694.03
2023-04-09T06:29:01.622Z,98700.28
2023-04-09T06:32:10.307Z,98699.53
2023-04-09T06:35:17.054Z,98695.47
2023-04-09T06:38:23.365Z,98701.69
2023-04-09T06:41:31.098Z,98703.44
2023-04-09T06:44:38.001Z,98700.88
2023-04-09T06:47:47.818Z,98707.81
2023-04-09T06:50:53.850Z,98703.72
2023-04-09T06:54:00.765Z,98711.09
2023-04-09T06:57:07.030Z,98700.19
2023-04-09T07:00:16.852Z,98705.97
2023-04-09T07:03:26.263Z,98707.00
2023-04-09T07:06:33.367Z,98695.69
2023-04-09T07:09:39.374Z,98710.56
2023-04-09T07:12:46.388Z,98709.94
2023-04-09T07:15:52.433Z,98703.41
2023-04-09T07:19:01.845Z,98704.03
2023-04-09T07:22:07.876Z,98707.91
2023-04-09T07:25:14.753Z,98713.25
2023-04-09T07:28:20.923Z,98714.03
2023-04-09T07:31:27.836Z,98710.84
2023-04-09T07:34:37.881Z,98719.25
2023-04-09T07:37:44.838Z,98713.06
2023-04-09T07:40:51.009Z,98715.78
2023-04-09T07:43:58.035Z,98721.00
2023-04-09T07:47:04.165Z,98718.41
2023-04-09T07:50:15.027Z,98707.50
2023-04-09T07:53:21.171Z,98714.19
2023-04-09T07:56:28.021Z,98715.31
2023-04-09T07:59:34.562Z,98717.25
2023-04-09T08:02:41.814Z,98717.13
2023-04-09T08:05:50.882Z,98719.16
2023-04-09T08:08:57.854Z,98723.06
2023-04-09T08:12:04.087Z,98725.91
2023-04-09T08:15:12.208Z,98718.94
2023-04-09T08:18:18.442Z,98722.38
2023-04-09T08:21:28.057Z,98734.06
2023-04-09T08:24:34.814Z,98733.44
2023-04-09T08:27:41.770Z,98733.44
2023-04-09T08:30:48.034Z,98733.19
2023-04-09T08:33:55.034Z,98736.59
2023-04-09T08:37:03.647Z,98738.38
2023-04-09T08:40:12.624Z,98732.34
2023-04-09T08:43:21.396Z,98739.69
2023-04-09T08:46:32.235Z,98736.75
2023-04-09T08:49:38.519Z,98739.16
2023-04-09T08:52:51.463Z,98739.72
2023-04-09T08:55:57.458Z,98736.97
2023-04-09T08:59:04.337Z,98739.59
2023-04-09T09:02:12.489Z,98735.13
2023-04-09T09:05:20.554Z,98742.28
2023-04-09T09:08:31.046Z,98737.09
2023-04-09T09:11:39.793Z,98735.88
2023-04-09T09:14:52.107Z,98735.22
2023-04-09T09:18:02.090Z,98731.56
2023-04-09T09:21:14.913Z,98733.97
2023-04-09T09:24:24.452Z,98727.56
2023-04-09T09:27:40.803Z,98734.34
2023-04-09T09:30:49.886Z,98745.63
2023-04-09T09:33:57.178Z,98737.53
2023-04-09T09:37:04.071Z,98749.41
2023-04-09T09:40:30.245Z,98740.09
2023-04-09T09:43:44.809Z,98743.44
2023-04-09T09:46:54.474Z,98742.69
2023-04-09T09:50:01.263Z,98746.22
2023-04-09T09:53:10.982Z,98740.50
2023-04-09T09:56:32.767Z,98724.06
2023-04-09T09:59:51.169Z,98740.22
2023-04-09T10:03:05.354Z,98737.59
2023-04-09T10:06:19.118Z,98737.50
2023-04-09T10:09:31.618Z,98733.94
2023-04-09T10:12:47.589Z,98736.28
2023-04-09T10:15:55.569Z,98729.63
2023-04-09T10:19:04.963Z,98740.63
2023-04-09T10:22:19.689Z,98731.78
2023-04-09T10:25:26.688Z,98736.47
2023-04-09T10:28:36.939Z,98725.16
2023-04-09T10:31:59.154Z,98725.41
2023-04-09T10:35:08.527Z,98719.50
2023-04-09T10:38:14.772Z,98717.78
2023-04-09T10:41:31.818Z,98716.50
2023-04-09T10:44:44.894Z,98717.50
2023-04-09T10:47:54.512Z,98711.69
2023-04-09T10:51:01.012Z,98715.34
2023-04-09T10:54:08.928Z,98716.06
2023-04-09T10:57:22.007Z,98707.84
2023-04-09T11:00:43.116Z,98704.06
2023-04-09T11:04:26.088Z,98707.81
2023-04-09T11:07:38.341Z,98702.13
2023-04-09T11:10:50.492Z,98701.59
2023-04-09T11:14:04.828Z,98704.88
2023-04-09T11:17:23.602Z,98707.59
2023-04-09T11:20:35.534Z,98702.56
2023-04-09T11:23:42.848Z,98704.59
2023-04-09T11:26:51.714Z,98703.88
2023-04-09T11:30:01.202Z,98691.94
2023-04-09T11:33:10.935Z,98697.13
2023-04-09T11:36:18.165Z,98699.69
2023-04-09T11:39:27.158Z,98696.13
2023-04-09T11:42:42.180Z,98703.16
2023-04-09T11:45:53.081Z,98699.06
2023-04-09T11:49:02.557Z,98697.13
2023-04-09T11:52:10.925Z,98696.53
2023-04-09T11:55:28.156Z,98694.34
2023-04-09T11:58:35.146Z,98702.44
2023-04-09T12:01:41.469Z,98699.41
2023-04-09T12:04:55.840Z,98698.53
2023-04-09T12:08:05.251Z,98699.00
2023-04-09T12:11:15.825Z,98703.44
2023-04-09T12:14:25.299Z,98700.00
2023-04-09T12:17:32.929Z,98696.00
2023-04-09T12:20:46.768Z,98700.34
2023-04-09T12:23:53.920Z,98704.50
2023-04-09T12:27:00.327Z,98698.69
2023-04-09T12:30:12.238Z,98689.72
2023-04-09T12:33:18.232Z,98694.88
2023-04-09T12:36:27.979Z,98698.47
2023-04-09T12:39:34.476Z,98693.53
2023-04-09T12:42:43.852Z,98693.13
2023-04-09T12:45:49.948Z,98692.78
2023-04-09T12:48:57.011Z,98688.00
2023-04-09T12:52:05.804Z,98692.47
2023-04-09T12:55:14.738Z,98684.38
2023-04-09T12:58:20.849Z,98680.09
2023-04-09T13:01:27.675Z,98680.75
2023-04-09T13:04:34.299Z,98679.19
2023-04-09T13:07:47.104Z,98675.06
2023-04-09T13:10:53.095Z,98680.78
2023-04-09T13:13:59.946Z,98684.94
2023-04-09T13:17:06.193Z,98673.88
2023-04-09T13:20:13.837Z,98674.78
2023-04-09T13:23:22.450Z,98684.75
2023-04-09T13:26:29.375Z,98672.75
2023-04-09T13:29:35.632Z,98670.66
2023-04-09T13:32:42.825Z,98672.47
2023-04-09T13:35:49.239Z,98666.13
2023-04-09T13:39:04.631Z,98666.06
2023-04-09T13:42:14.062Z,98676.69
2023-04-09T13:45:24.138Z,98676.19
2023-04-09T13:48:30.239Z,98668.31
2023-04-09T13:51:37.888Z,98669.25
2023-04-09T13:54:46.839Z,98674.09
2023-04-09T13:57:57.096Z,98671.72
2023-04-09T14:01:09.479Z,98670.50
2023-04-09T14:04:17.060Z,98667.94
2023-04-09T14:07:23.153Z,98662.44
2023-04-09T14:10:33.055Z,98662.66
2023-04-09T14:13:39.154Z,98666.97
2023-04-09T14:16:46.063Z,98659.03
2023-04-09T14:19:52.475Z,98656.50
2023-04-09T14:23:02.035Z,98657.84
2023-04-09T14:26:11.170Z,98655.34
2023-04-09T14:29:18.359Z,98653.09
2023-04-09T14:32:24.658Z,98651.53
2023-04-09T14:35:37.940Z,98648.91
2023-04-09T14:38:44.309Z,98641.66
2023-04-09T14:41:54.866Z,98653.94
2023-04-09T14:45:05.264Z,98651.78
2023-04-09T14:48:12.863Z,98649.06
2023-04-09T14:51:19.455Z,98650.09
2023-04-09T14:54:26.530Z,98648.38
2023-04-09T14:57:35.113Z,98648.84
2023-04-09T15:00:44.428Z,98649.78
2023-04-09T15:03:51.412Z,98640.63
2023-04-09T15:07:00.297Z,98645.16
2023-04-09T15:10:08.349Z,98644.78
2023-04-09T15:13:18.632Z,98645.06
2023-04-09T15:16:27.613Z,98640.06
2023-04-09T15:19:34.963Z,98633.72
2023-04-09T15:22:41.318Z,98631.53
2023-04-09T15:25:48.395Z,98636.13
2023-04-09T15:29:06.859Z,98632.53
2023-04-09T15:32:14.745Z,98633.88
2023-04-09T15:35:25.371Z,98637.25
2023-04-09T15:38:32.877Z,98640.91
2023-04-09T15:41:39.015Z,98639.59
2023-04-09T15:44:48.626Z,98637.91
2023-04-09T15:47:54.920Z,98640.59
2023-04-09T15:51:02.027Z,98645.59
2023-04-09T15:54:08.400Z,98648.25
2023-04-09T15:57:15.677Z,98647.91
2023-04-09T16:00:25.326Z,98650.91
2023-04-09T16:03:37.377Z,98647.75
2023-04-09T16:06:43.826Z,98655.88
2023-04-09T16:09:50.800Z,98662.88
2023-04-09T16:12:57.207Z,98662.53
2023-04-09T16:16:07.786Z,98664.38
2023-04-09T16:19:14.258Z,98660.81
2023-04-09T16:22:21.086Z,98659.53
2023-04-09T16:25:27.627Z,98662.53
2023-04-09T16:28:36.622Z,98666.69
2023-04-09T16:31:47.410Z,98661.84
2023-04-09T16:34:56.552Z,98665.50
2023-04-09T16:38:02.915Z,98654.84
2023-04-09T16:41:12.326Z,98663.31
2023-04-09T16:44:21.679Z,98662.81
2023-04-09T16:47:31.750Z,98673.22
2023-04-09T16:50:37.895Z,98671.34
2023-04-09T16:53:45.001Z,98674.47
2023-04-09T16:56:51.681Z,98673.72
2023-04-09T17:00:00.369Z,98673.44
2023-04-09T17:03:29.454Z,98677.28
2023-04-09T17:06:36.448Z,98687.69
2023-04-09T17:09:42.784Z,98690.09
2023-04-09T17:12:50.919Z,98687.22
2023-04-09T17:15:57.202Z,98691.25
2023-04-09T17:19:06.800Z,98696.19
2023-04-09T17:22:18.274Z,98692.34
2023-04-09T17:25:27.805Z,98697.03
2023-04-09T17:28:35.597Z,98703.91
2023-04-09T17:31:42.764Z,98701.91
2023-04-09T17:34:54.545Z,98712.06
2023-04-09T17:38:01.753Z,98712.44
2023-04-09T17:41:09.339Z,98719.50
2023-04-09T17:44:16.218Z,98710.94
2023-04-09T17:47:22.666Z,98711.44
2023-04-09T17:50:32.251Z,98722.66
2023-04-09T17:53:42.248Z,98736.78
2023-04-09T17:56:49.278Z,98731.22
2023-04-09T17:59:55.443Z,98728.50
2023-04-09T18:03:02.647Z,98724.06
2023-04-09T18:06:12.030Z,98733.66
2023-04-09T18:09:19.050Z,98742.25
2023-04-09T18:12:25.151Z,98730.66
2023-04-09T18:15:33.974Z,98741.03
2023-04-09T18:18:40.886Z,98751.38
2023-04-09T18:21:50.316Z,98752.34
2023-04-09T18:24:56.900Z,98754.56
2023-04-09T18:28:03.829Z,98750.63
2023-04-09T18:31:16.126Z,98756.00
2023-04-09T18:34:22.936Z,98761.88
2023-04-09T18:37:34.449Z,98758.53
2023-04-09T18:40:48.254Z,98763.84
2023-04-09T18:43:56.745Z,98767.31
2023-04-09T18:47:05.331Z,98776.00
2023-04-09T18:50:15.434Z,98775.84
2023-04-09T18:53:25.407Z,98775.31
2023-04-09T18:56:35.166Z,98776.97
2023-04-09T18:59:47.494Z,98777.97
2023-04-09T19:02:53.975Z,98777.13
2023-04-09T19:06:00.993Z,98783.13
2023-04-09T19:09:10.357Z,98770.03
2023-04-09T19:12:17.622Z,98777.28
2023-04-09T19:15:26.377Z,98780.34
2023-04-09T19:18:34.549Z,98777.28
2023-04-09T19:21:41.504Z,98777.28
2023-04-09T19:24:51.354Z,98780.75
2023-04-09T19:27:57.644Z,98778.41
2023-04-09T19:31:10.256Z,98771.16
2023-04-09T19:34:16.694Z,98768.50
2023-04-09T19:37:27.724Z,98780.50
2023-04-09T19:40:36.580Z,98783.00
2023-04-09T19:43:44.530Z,98786.75
2023-04-09T19:46:53.287Z,98790.25
2023-04-09T19:50:00.188Z,98786.03
2023-04-09T19:53:26.550Z,98785.66
2023-04-09T19:56:38.370Z,98786.75
2023-04-09T19:59:44.555Z,98792.44
2023-04-09T20:02:58.484Z,98797.16
2023-04-09T20:06:10.330Z,98800.34
2023-04-09T20:09:18.437Z,98796.19
2023-04-09T20:12:29.788Z,98795.63
2023-04-09T20:15:36.780Z,98799.41
2023-04-09T20:18:42.859Z,98794.50
2023-04-09T20:21:49.640Z,98798.28
2023-04-09T20:24:56.869Z,98800.22
2023-04-09T20:28:14.123Z,98800.66
2023-04-09T20:31:20.425Z,98797.31
2023-04-09T20:34:30.544Z,98802.44
2023-04-09T20:37:36.469Z,98797.75
2023-04-09T20:40:43.403Z,98800.81
2023-04-09T20:43:54.071Z,98799.13
2023-04-09T20:47:00.940Z,98803.19
2023-04-09T20:50:11.026Z,98804.00
2023-04-09T20:53:24.629Z,98799.97
2023-04-09T20:56:30.697Z,98796.63
2023-04-09T20:59:40.232Z,98804.84
2023-04-09T21:02:46.986Z,98796.06
2023-04-09T21:05:55.945Z,98806.09
2023-04-09T21:09:02.073Z,98806.81
2023-04-09T21:12:10.644Z,98807.09
2023-04-09T21:15:19.560Z,98810.16
2023-04-09T21:18:26.397Z,98812.69
2023-04-09T21:21:34.239Z,98819.78
2023-04-09T21:24:41.164Z,98812.94
2023-04-09T21:27:47.083Z,98809.75
2023-04-09T21:31:00.013Z,98818.25
2023-04-09T21:34:24.306Z,98804.72
2023-04-09T21:37:33.306Z,98815.59
2023-04-09T21:40:39.519Z,98814.63
2023-04-09T21:43:46.323Z,98812.81
2023-04-09T21:46:55.094Z,98805.00
2023-04-09T21:50:08.403Z,98805.28
2023-04-09T21:53:27.447Z,98813.94
2023-04-09T21:56:35.093Z,98811.97
2023-04-09T21:59:41.649Z,98818.81
2023-04-09T22:02:51.392Z,98806.13
2023-04-09T22:05:57.480Z,98813.50
2023-04-09T22:09:04.920Z,98815.56
2023-04-09T22:12:11.174Z,98815.84
2023-04-09T22:15:19.474Z,98808.75
2023-04-09T22:18:29.063Z,98814.91
2023-04-09T22:21:36.018Z,98819.88
2023-04-09T22:24:42.143Z,98815.69
2023-04-09T22:27:54.667Z,98814.16
2023-04-09T22:31:01.733Z,98818.06
2023-04-09T22:34:21.476Z,98817.78
2023-04-09T22:37:32.887Z,98820.00
2023-04-09T22:40:46.221Z,98813.63
2023-04-09T22:43:52.781Z,98812.06
2023-04-09T22:46:59.776Z,98816.78
2023-04-09T22:50:11.501Z,98815.66
2023-04-09T22:53:19.970Z,98814.72
2023-04-09T22:56:26.251Z,98815.66
2023-04-09T22:59:40.132Z,98817.25
2023-04-09T23:02:47.834Z,98805.81
2023-04-09T23:05:57.522Z,98808.88
2023-04-09T23:09:03.519Z,98805.94
2023-04-09T23:12:10.385Z,98810.53
2023-04-09T23:15:16.348Z,98795.63
2023-04-09T23:18:23.296Z,98808.59
2023-04-09T23:21:32.035Z,98809.16
2023-04-09T23:24:38.892Z,98804.13
2023-04-09T23:27:45.189Z,98803.88
2023-04-09T23:30:52.185Z,98809.16
2023-04-09T23:33:58.157Z,98810.13
2023-04-09T23:37:20.453Z,98809.16
2023-04-09T23:40:26.923Z,98815.16
2023-04-09T23:43:37.753Z,98804.41
2023-04-09T23:46:43.821Z,98797.28
2023-04-09T23:49:50.535Z,98795.19
2023-04-09T23:53:01.302Z,98800.50
2023-04-09T23:56:14.087Z,98798.88
2023-04-09T23:59:20.094Z,98786.63
